KFMY/FMY METAR and TAF weather

Enter ICAO airport designator
Station Type Date Time Source
KFMY METAR 2019/02/23 22:53 UTC NOAA

KFMY 232253Z 20012KT 10SM CLR 27/19 A3006 RMK AO2 SLP180 T02670189


Station Type Date Time Source
KFMY Decoded METAR 2019/02/23 22:53 UTC NOAA

FORT MYERS PAGE FIELD, FL, United States (KFMY) 26-35N 081-52W 4M
Feb 23, 2019 - 05:53 PM EST / 2019.02.23 2253 UTC
Wind: from the SSW (200 degrees) at 14 MPH (12 KT):0
Visibility: 10 mile(s):0
Sky conditions: clear
Temperature: 80.1 F (26.7 C)
Dew Point: 66.0 F (18.9 C)
Relative Humidity: 62%
Pressure (altimeter): 30.06 in. Hg (1017 hPa)
ob: KFMY 232253Z 20012KT 10SM CLR 27/19 A3006 RMK AO2 SLP180 T02670189
cycle: 23

Station Type Date Time Source
KFMY TAF 2019/02/23 22:36 UTC NOAA

TAF
AMD KFMY 232133Z 2322/2418 21012G18KT P6SM SCT050 SCT080
FM240000 16004KT P6SM SCT025
FM240900 VRB03KT 5SM BR BKN025
FM241400 21010KT P6SM SCT025 BKN100


Example: see airport list